Time;durP1;ratioP1;P1;durP2;ratioP2;P2;SDS_P1;SDS_P2;PMS_P1;PMS_P2;Temp;Humidity;BMP_temperature;BMP_pressure;BME280_temperature;BME280_humidity;BME280_pressure;Samples;Min_cycle;Max_cycle;Signal;HPM_P1;HPM_P2
2021/03/28 00:02:30;;;;;;;17.10;9.85;;;;;;;30.61;49.55;100863.66;5040119;28;69420;-34
2021/03/28 00:05:06;;;;;;;20.73;10.05;;;;;;;30.66;50.68;100871.13;5033716;27;66075;-34
2021/03/28 00:07:37;;;;;;;15.75;9.98;;;;;;;30.72;50.30;100862.94;5029411;28;70173;-33
2021/03/28 00:10:22;;;;;;;13.93;9.77;;;;;;;30.70;50.79;100859.66;5011620;28;65021;-34
2021/03/28 00:13:04;;;;;;;21.27;10.07;;;;;;;30.75;51.66;100867.09;5019575;28;69686;-36
2021/03/28 00:15:43;;;;;;;15.85;10.38;;;;;;;30.90;51.56;100892.03;5024656;28;66689;-33
2021/03/28 00:18:15;;;;;;;18.75;10.82;;;;;;;31.02;52.10;100892.16;5027563;28;69972;-33
2021/03/28 00:20:46;;;;;;;19.63;10.88;;;;;;;31.10;52.16;100901.88;5034329;28;66562;-34
2021/03/28 00:23:24;;;;;;;18.63;11.35;;;;;;;31.20;52.69;100913.03;5019128;28;70249;-33
2021/03/28 00:25:59;;;;;;;21.95;10.77;;;;;;;31.20;52.73;100906.78;5028490;28;66402;-34
2021/03/28 00:28:53;;;;;;;11.65;10.18;;;;;;;31.26;52.97;100916.72;5025918;28;70352;-33
2021/03/28 00:31:32;;;;;;;16.20;9.45;;;;;;;31.34;52.87;100930.00;5026279;28;65304;-33
2021/03/28 00:34:14;;;;;;;18.63;10.27;;;;;;;31.34;52.76;100924.59;5037704;28;70116;-33
2021/03/28 00:36:49;;;;;;;21.13;10.70;;;;;;;31.39;52.97;100938.34;5035756;28;65346;-32
2021/03/28 00:39:53;;;;;;;19.65;11.65;;;;;;;31.38;53.37;100936.69;5033954;28;69694;-32
2021/03/28 00:42:28;;;;;;;25.58;11.60;;;;;;;31.35;53.75;100947.94;5040654;28;65212;-32
2021/03/28 00:45:13;;;;;;;20.85;11.60;;;;;;;31.15;55.22;100948.94;5037981;28;69917;-33
2021/03/28 00:48:05;;;;;;;21.88;10.93;;;;;;;31.28;54.81;100958.00;5039016;28;65109;-33
2021/03/28 00:50:45;;;;;;;23.23;11.05;;;;;;;31.35;54.02;100956.06;5031487;28;69192;-34
2021/03/28 00:53:29;;;;;;;22.00;10.27;;;;;;;31.25;54.48;100969.28;5034820;28;65479;-33
2021/03/28 00:56:05;;;;;;;15.40;10.25;;;;;;;31.28;53.34;100963.41;5045496;28;69883;-33
2021/03/28 00:58:47;;;;;;;25.77;11.00;;;;;;;31.34;53.60;100974.22;5034824;28;66783;-34
2021/03/28 01:02:06;;;;;;;20.92;10.00;;;;;;;31.41;53.78;100982.31;5038626;28;70046;-33
2021/03/28 01:05:06;;;;;;;17.85;10.15;;;;;;;31.38;54.60;100986.31;5041187;28;66696;-33
2021/03/28 01:07:41;;;;;;;21.27;10.30;;;;;;;31.52;54.38;100992.44;5028446;28;69998;-34
2021/03/28 01:10:16;;;;;;;14.45;9.68;;;;;;;31.56;54.77;100988.22;5036465;28;66128;-32
2021/03/28 01:12:57;;;;;;;14.98;9.32;;;;;;;31.54;54.43;100984.91;5037866;28;70524;-34
2021/03/28 01:16:03;;;;;;;10.38;8.48;;;;;;;31.67;53.83;100993.97;5040156;27;66026;-33
2021/03/28 01:18:37;;;;;;;15.43;8.95;;;;;;;31.69;54.13;100997.31;5045676;28;70402;-32
2021/03/28 01:21:21;;;;;;;14.10;8.73;;;;;;;31.74;54.74;101005.59;5040623;28;65944;-32
2021/03/28 01:24:19;;;;;;;13.90;8.55;;;;;;;31.76;54.37;100998.03;5037027;28;70169;-33
2021/03/28 01:26:57;;;;;;;13.18;8.30;;;;;;;31.78;54.75;101006.81;5035755;28;65898;-33
2021/03/28 01:29:38;;;;;;;10.50;7.95;;;;;;;31.78;54.99;101015.75;5035585;28;69680;-32
2021/03/28 01:32:23;;;;;;;9.60;8.07;;;;;;;31.85;54.65;101007.56;5033915;28;65194;-34
2021/03/28 01:34:58;;;;;;;10.75;8.27;;;;;;;31.87;54.80;101010.88;5037089;28;69346;-35
2021/03/28 01:37:42;;;;;;;12.57;8.65;;;;;;;31.88;54.58;101012.56;5028659;28;65289;-32
2021/03/28 01:40:24;;;;;;;7.75;6.93;;;;;;;31.78;54.78;100993.25;5034630;28;69278;-32
2021/03/28 01:43:15;;;;;;;16.30;7.73;;;;;;;31.87;55.12;101027.16;5030692;28;65989;-35
2021/03/28 01:45:58;;;;;;;11.85;7.45;;;;;;;31.92;55.23;101023.81;5032333;28;69405;-32
2021/03/28 01:48:39;;;;;;;11.30;8.02;;;;;;;31.88;55.26;101017.97;5028127;28;66569;-32
2021/03/28 01:51:19;;;;;;;13.07;8.65;;;;;;;31.97;54.47;101016.66;5038626;28;69887;-34
2021/03/28 01:54:01;;;;;;;16.77;8.05;;;;;;;32.08;55.03;101022.41;5055991;28;66428;-36
2021/03/28 01:56:46;;;;;;;8.90;7.85;;;;;;;32.10;54.27;101007.56;5033929;28;69217;-34
2021/03/28 01:59:18;;;;;;;9.85;7.20;;;;;;;32.13;54.49;101003.56;5037154;28;65960;-33
2021/03/28 02:02:00;;;;;;;13.45;7.68;;;;;;;32.13;55.08;101004.38;5035747;28;70110;-33
2021/03/28 02:04:52;;;;;;;13.17;6.97;;;;;;;32.18;54.97;101006.41;5034075;28;66143;-33
2021/03/28 02:07:46;;;;;;;10.65;7.53;;;;;;;32.18;55.35;101012.69;5032745;28;69364;-34
2021/03/28 02:10:45;;;;;;;23.95;7.75;;;;;;;32.23;55.42;101009.28;5032842;28;65686;-35
2021/03/28 02:13:23;;;;;;;32.72;7.47;;;;;;;32.27;55.12;100999.63;5035339;28;69531;-32
2021/03/28 02:16:24;;;;;;;7.80;6.60;;;;;;;32.11;55.42;100979.34;5036833;28;66663;-32
2021/03/28 02:19:20;;;;;;;22.67;15.82;;;;;;;32.32;54.34;100990.78;5037180;28;70162;-33
2021/03/28 02:22:01;;;;;;;115.43;77.45;;;;;;;32.35;54.24;100996.63;5035198;28;65378;-33
2021/03/28 02:24:46;;;;;;;135.85;107.00;;;;;;;32.25;54.43;100990.88;5021273;28;69171;-30
2021/03/28 02:27:59;;;;;;;160.83;121.87;;;;;;;32.08;53.69;100989.84;5024472;28;65188;-29
2021/03/28 02:30:43;;;;;;;226.68;190.23;;;;;;;32.12;53.66;100991.03;5043685;28;69934;-30
2021/03/28 02:33:17;;;;;;;325.25;246.73;;;;;;;32.17;53.23;100985.75;5039715;28;66033;-32
2021/03/28 02:36:24;;;;;;;110.53;75.57;;;;;;;32.15;52.81;100979.72;5037896;28;69801;-29
2021/03/28 02:39:15;;;;;;;48.40;27.23;;;;;;;32.21;52.60;100974.22;5036231;28;66046;-30
2021/03/28 02:42:04;;;;;;;27.85;16.48;;;;;;;32.23;52.85;100965.84;5020517;28;68110;-31
2021/03/28 02:45:00;;;;;;;30.77;13.18;;;;;;;32.32;52.58;100969.94;5029367;28;66246;-29
2021/03/28 02:47:45;;;;;;;18.45;11.25;;;;;;;32.30;52.51;100965.78;5035769;28;69119;-29
2021/03/28 02:50:54;;;;;;;14.40;9.85;;;;;;;32.29;52.54;100964.97;5022796;28;65950;-29
2021/03/28 02:53:56;;;;;;;26.02;10.82;;;;;;;32.38;52.76;100960.88;5022694;28;68959;-31
2021/03/28 02:56:41;;;;;;;15.55;9.25;;;;;;;32.41;53.14;100957.69;5026561;28;66192;-30
2021/03/28 02:59:31;;;;;;;15.98;10.38;;;;;;;32.42;52.94;100948.47;5068314;27;70913;-30
2021/03/28 03:02:22;;;;;;;14.82;10.15;;;;;;;32.55;52.90;100973.84;5038344;28;65157;-30
2021/03/28 03:05:01;;;;;;;14.00;9.82;;;;;;;32.53;53.01;100959.66;5038035;28;71324;-31
2021/03/28 03:10:27;;;;;;;19.52;10.15;;;;;;;32.60;53.22;100960.41;5082482;27;43921;-34
2021/03/28 03:13:18;;;;;;;13.30;9.73;;;;;;;32.62;52.68;100963.69;5081784;27;69112;-31
2021/03/28 03:15:56;;;;;;;14.38;9.20;;;;;;;32.66;53.19;100964.91;5079280;27;66188;-30
2021/03/28 03:19:02;;;;;;;10.82;9.73;;;;;;;32.51;53.15;100934.59;5086292;27;69343;-30
2021/03/28 03:21:50;;;;;;;10.40;9.32;;;;;;;32.76;52.87;100953.47;5083556;27;66039;-30
2021/03/28 03:24:47;;;;;;;11.88;8.70;;;;;;;32.62;52.51;100931.94;5084019;27;69293;-30
2021/03/28 03:27:38;;;;;;;11.60;9.35;;;;;;;32.77;52.51;100955.97;5045949;27;66026;-30
2021/03/28 03:30:37;;;;;;;10.38;9.50;;;;;;;32.77;52.65;100955.16;5079049;27;70141;-32
2021/03/28 03:33:27;;;;;;;11.80;8.82;;;;;;;32.73;52.45;100941.19;5075628;27;65794;-31
2021/03/28 03:36:11;;;;;;;9.98;9.02;;;;;;;32.76;52.20;100935.28;5074844;27;69890;-31
2021/03/28 03:39:02;;;;;;;10.68;8.90;;;;;;;32.87;52.07;100939.91;5082771;27;65402;-30
2021/03/28 03:41:46;;;;;;;9.52;8.73;;;;;;;32.84;52.25;100926.81;5076635;27;69831;-30
2021/03/28 03:44:20;;;;;;;9.18;7.90;;;;;;;32.96;51.95;100921.41;5086661;27;66226;-31
2021/03/28 03:47:30;;;;;;;9.93;8.25;;;;;;;32.90;52.28;100912.31;5060096;27;70289;-30
2021/03/28 03:50:19;;;;;;;8.05;7.32;;;;;;;32.97;51.75;100914.09;5061457;27;66043;-31
2021/03/28 03:53:18;;;;;;;9.00;8.23;;;;;;;32.97;51.82;100908.66;5095350;27;69893;-30
2021/03/28 03:56:26;;;;;;;8.93;8.13;;;;;;;33.02;51.80;100903.38;5070967;27;66266;-30
2021/03/28 03:59:14;;;;;;;8.30;7.60;;;;;;;33.04;51.73;100906.66;5025451;28;71002;-30
2021/03/28 04:02:34;;;;;;;8.02;7.22;;;;;;;32.99;51.71;100898.34;5081874;27;66065;-30
2021/03/28 04:05:32;;;;;;;7.50;6.85;;;;;;;33.05;51.54;100892.03;5046027;27;69811;-31
2021/03/28 04:08:16;;;;;;;7.95;7.03;;;;;;;33.08;51.78;100880.69;5078772;27;65377;-31
2021/03/28 04:11:19;;;;;;;8.52;7.65;;;;;;;33.10;51.52;100867.69;5081009;27;70042;-30
2021/03/28 04:14:03;;;;;;;7.90;7.20;;;;;;;33.12;51.33;100869.09;5081092;27;65172;-32
2021/03/28 04:16:48;;;;;;;7.88;7.10;;;;;;;33.17;51.25;100852.09;5070507;27;70684;-32
2021/03/28 04:19:31;;;;;;;8.90;6.95;;;;;;;33.17;51.31;100862.13;5079750;27;66533;-31
2021/03/28 04:22:38;;;;;;;7.85;7.15;;;;;;;33.18;51.43;100853.72;5067811;27;70755;-33
2021/03/28 04:25:44;;;;;;;7.78;7.15;;;;;;;33.15;51.31;100848.78;5060126;28;66089;-32
2021/03/28 04:28:38;;;;;;;8.15;7.45;;;;;;;33.23;51.00;100845.69;5079950;27;69356;-30
2021/03/28 04:31:43;;;;;;;7.55;6.95;;;;;;;33.27;51.01;100837.91;5072492;27;65998;-30
2021/03/28 04:34:27;;;;;;;8.38;6.93;;;;;;;33.22;50.87;100816.03;5079594;27;70482;-31
2021/03/28 04:36:56;;;;;;;9.52;7.55;;;;;;;33.35;50.58;100826.69;5063307;27;66080;-31
2021/03/28 04:39:28;;;;;;;7.85;6.65;;;;;;;33.37;50.49;100825.34;5071233;27;69132;-40
2021/03/28 04:42:15;;;;;;;8.27;7.03;;;;;;;33.37;50.54;100814.47;5076184;27;66010;-30
2021/03/28 04:44:51;;;;;;;8.77;7.07;;;;;;;33.37;51.12;100809.03;5075220;27;69878;-31
2021/03/28 04:47:57;;;;;;;9.38;6.80;;;;;;;33.44;51.42;100810.81;5074333;27;66390;-30
2021/03/28 04:50:45;;;;;;;14.27;7.60;;;;;;;33.40;51.29;100809.63;5069403;27;71222;-30
2021/03/28 04:54:02;;;;;;;16.13;7.90;;;;;;;33.32;49.75;100792.63;5057913;27;64820;-32
2021/03/28 04:56:45;;;;;;;9.95;7.05;;;;;;;33.26;49.37;100790.03;5037484;27;69297;-31
2021/03/28 04:59:28;;;;;;;6.60;6.10;;;;;;;33.15;48.66;100778.94;5070632;28;65107;-32
2021/03/28 05:02:16;;;;;;;7.97;5.75;;;;;;;33.12;47.61;100781.28;5069265;27;69808;-30
2021/03/28 05:05:06;;;;;;;5.95;5.45;;;;;;;32.99;46.72;100762.47;5069676;27;66054;-31
2021/03/28 05:08:03;;;;;;;15.63;7.18;;;;;;;32.86;46.69;100753.53;5067161;28;69788;-33
2021/03/28 05:10:55;;;;;;;12.75;5.72;;;;;;;32.89;45.61;100754.94;5063124;27;66516;-35
2021/03/28 05:13:38;;;;;;;15.90;6.65;;;;;;;32.92;45.72;100749.84;5074127;27;69894;-33
2021/03/28 05:16:32;;;;;;;17.20;5.65;;;;;;;32.90;44.80;100738.41;5060061;28;66532;-35
2021/03/28 05:19:20;;;;;;;15.32;5.50;;;;;;;32.78;44.57;100734.88;5059413;27;70060;-35
2021/03/28 05:22:16;;;;;;;9.60;6.15;;;;;;;32.70;43.70;100710.78;5057840;27;66628;-32
2021/03/28 05:25:19;;;;;;;7.03;5.40;;;;;;;32.77;43.22;100722.38;5063340;28;70479;-31
2021/03/28 05:28:16;;;;;;;8.13;5.40;;;;;;;32.76;43.07;100725.31;5086773;27;64619;-35
2021/03/28 05:31:07;;;;;;;6.03;5.35;;;;;;;32.69;42.20;100717.28;5067483;27;69077;-33
2021/03/28 05:33:57;;;;;;;9.93;5.18;;;;;;;32.68;41.34;100702.03;5061745;27;66595;-29
2021/03/28 05:36:43;;;;;;;8.13;4.85;;;;;;;32.68;42.15;100705.59;5060488;27;69811;-35
2021/03/28 05:39:31;;;;;;;8.15;5.45;;;;;;;32.64;40.80;100700.88;5056730;27;65387;-31
2021/03/28 05:42:40;;;;;;;6.80;5.28;;;;;;;32.58;41.33;100690.97;5057409;28;69319;-31
2021/03/28 05:45:33;;;;;;;5.30;4.80;;;;;;;32.62;40.73;100683.97;5057572;28;66534;-30
2021/03/28 05:48:39;;;;;;;5.20;4.82;;;;;;;32.54;40.30;100676.19;5057380;28;69833;-31
2021/03/28 05:51:33;;;;;;;5.30;4.00;;;;;;;32.48;39.08;100670.66;5058203;27;66028;-31
2021/03/28 05:54:30;;;;;;;4.55;4.25;;;;;;;32.20;39.17;100662.34;5061054;28;69395;-31
2021/03/28 05:57:37;;;;;;;4.90;4.07;;;;;;;31.98;38.82;100643.06;5062513;28;66232;-31
2021/03/28 06:00:15;;;;;;;7.78;4.53;;;;;;;32.10;39.45;100656.69;5062361;28;69832;-30
2021/03/28 06:03:09;;;;;;;4.50;4.20;;;;;;;32.05;38.54;100644.63;5080035;27;66843;-32
2021/03/28 06:06:18;;;;;;;7.60;4.20;;;;;;;31.98;38.30;100643.94;5065085;28;70000;-31
2021/03/28 06:09:24;;;;;;;4.82;4.53;;;;;;;31.93;38.12;100638.38;5064620;27;65378;-31
2021/03/28 06:12:18;;;;;;;5.20;4.70;;;;;;;31.91;38.05;100626.91;5061403;27;70060;-30
2021/03/28 06:15:02;;;;;;;5.05;4.55;;;;;;;31.88;38.66;100599.41;5061263;28;65751;-30
2021/03/28 06:17:56;;;;;;;5.85;4.43;;;;;;;31.98;38.69;100615.94;5060481;27;69280;-31
2021/03/28 06:21:11;;;;;;;4.78;4.38;;;;;;;31.97;38.13;100614.31;5061627;27;66260;-30
2021/03/28 06:23:46;;;;;;;4.88;4.35;;;;;;;31.99;38.82;100599.44;5059902;27;69067;-32
2021/03/28 06:26:34;;;;;;;4.60;4.25;;;;;;;32.01;38.72;100602.75;5062333;28;65407;-33
2021/03/28 06:29:27;;;;;;;8.95;4.28;;;;;;;31.93;37.72;100597.69;5057037;27;70008;-30
2021/03/28 06:32:26;;;;;;;7.38;5.07;;;;;;;31.94;38.49;100580.34;5061449;27;65772;-29
2021/03/28 06:35:32;;;;;;;13.63;5.30;;;;;;;32.02;37.79;100579.97;5066367;27;70445;-32
2021/03/28 06:38:21;;;;;;;17.83;5.38;;;;;;;31.92;38.51;100552.59;5060868;27;66231;-31
2021/03/28 06:41:09;;;;;;;8.40;5.15;;;;;;;32.05;38.28;100563.22;5065388;28;69424;-34
2021/03/28 06:44:08;;;;;;;18.30;5.55;;;;;;;32.07;38.42;100564.88;5063711;27;66361;-30
2021/03/28 06:46:45;;;;;;;6.72;4.85;;;;;;;32.12;38.10;100551.44;5009321;28;70525;-33
2021/03/28 06:49:48;;;;;;;9.55;5.20;;;;;;;32.08;37.69;100552.97;5066518;27;65484;-33
2021/03/28 06:52:33;;;;;;;11.63;4.25;;;;;;;32.20;37.69;100538.31;5065185;27;72231;-31
2021/03/28 06:55:36;;;;;;;5.88;4.82;;;;;;;32.22;37.85;100546.25;5064726;27;66618;-29
2021/03/28 06:58:32;;;;;;;9.93;5.67;;;;;;;32.23;37.59;100537.03;5059682;27;70223;-30
2021/03/28 07:01:35;;;;;;;5.70;4.65;;;;;;;32.18;37.00;100532.31;5065452;27;66427;-31
2021/03/28 07:04:15;;;;;;;;;;;;;;;32.11;36.51;100536.22;5079617;27;69419;-32
2021/03/28 07:06:54;;;;;;;5.00;4.53;;;;;;;32.23;36.25;100515.31;5060952;28;66205;-30
2021/03/28 07:09:23;;;;;;;6.85;4.55;;;;;;;32.24;37.22;100516.97;5083221;27;69917;-30
2021/03/28 07:12:17;;;;;;;5.03;4.47;;;;;;;32.23;36.29;100510.72;5066554;27;64563;-34
2021/03/28 07:15:11;;;;;;;6.70;3.97;;;;;;;32.31;36.31;100506.81;5062480;27;70059;-32
2021/03/28 07:18:11;;;;;;;6.03;4.50;;;;;;;32.32;36.45;100508.47;5053679;28;66411;-32
2021/03/28 07:20:51;;;;;;;8.02;4.75;;;;;;;32.28;35.92;100493.72;5063146;27;69980;-31
2021/03/28 07:23:50;;;;;;;4.70;4.20;;;;;;;32.39;36.06;100502.91;5070937;28;65519;-29
2021/03/28 07:26:32;;;;;;;5.55;4.35;;;;;;;32.38;36.48;100496.66;5063990;28;69093;-30
2021/03/28 07:29:31;;;;;;;6.07;4.50;;;;;;;32.44;36.09;100501.13;5070919;27;66268;-31
2021/03/28 07:32:18;;;;;;;9.02;4.25;;;;;;;32.53;36.28;100492.63;5070934;27;70303;-33
2021/03/28 07:35:06;;;;;;;10.75;4.82;;;;;;;32.54;36.55;100488.84;5073957;27;66045;-32
2021/03/28 07:37:57;;;;;;;5.38;4.30;;;;;;;32.59;37.12;100483.50;5078324;27;69260;-33
2021/03/28 07:40:45;;;;;;;5.13;4.57;;;;;;;32.57;37.32;100480.19;5069947;27;66075;-32
2021/03/28 07:43:21;;;;;;;4.97;4.50;;;;;;;32.63;37.17;100466.50;5085460;27;70289;-32
2021/03/28 07:46:03;;;;;;;5.50;5.05;;;;;;;32.64;37.14;100472.75;5066576;27;65819;-31
2021/03/28 07:48:54;;;;;;;5.40;4.45;;;;;;;32.67;37.33;100466.84;5067909;28;70667;-31
2021/03/28 07:51:50;;;;;;;5.68;4.93;;;;;;;32.90;38.19;100461.31;5080692;27;65376;-34
2021/03/28 07:55:16;;;;;;;6.03;5.43;;;;;;;33.18;38.93;100461.50;5065794;27;68806;-31
2021/03/28 07:58:04;;;;;;;9.18;5.10;;;;;;;33.41;40.30;100455.94;5065224;27;66266;-32
2021/03/28 08:00:59;;;;;;;8.18;5.03;;;;;;;33.58;40.45;100451.34;5067846;27;69299;-30
2021/03/28 08:04:03;;;;;;;10.75;5.38;;;;;;;33.77;40.76;100454.59;5071420;28;66313;-35
2021/03/28 08:06:53;;;;;;;6.07;4.95;;;;;;;33.97;41.75;100461.41;5072716;27;69966;-31
2021/03/28 08:09:34;;;;;;;10.00;5.07;;;;;;;34.14;42.20;100453.22;5068425;27;66262;-31
2021/03/28 08:12:32;;;;;;;9.23;5.63;;;;;;;34.28;41.87;100448.22;5063161;28;70542;-35
2021/03/28 08:15:32;;;;;;;13.50;5.20;;;;;;;34.41;42.71;100447.84;5073626;27;66455;-30
2021/03/28 08:18:40;;;;;;;14.68;4.82;;;;;;;34.47;43.20;100446.81;5069218;27;70026;-30
2021/03/28 08:21:18;;;;;;;15.65;5.10;;;;;;;34.57;43.78;100452.38;5068631;27;65986;-30
2021/03/28 08:24:25;;;;;;;9.45;5.03;;;;;;;34.64;43.35;100458.47;5065496;27;70090;-31
2021/03/28 08:27:25;;;;;;;6.63;5.38;;;;;;;34.82;43.26;100449.09;5067729;28;65110;-35
2021/03/28 08:30:24;;;;;;;10.27;5.05;;;;;;;34.83;44.03;100441.78;5059404;27;69720;-31
2021/03/28 08:33:15;;;;;;;5.32;4.88;;;;;;;34.93;44.18;100444.56;5070602;28;66144;-32
2021/03/28 08:36:11;;;;;;;6.73;5.57;;;;;;;34.85;44.46;100428.69;5077514;27;69331;-31
2021/03/28 08:39:08;;;;;;;6.60;5.47;;;;;;;34.98;44.25;100431.00;5067145;27;65352;-32
2021/03/28 08:41:58;;;;;;;7.75;4.90;;;;;;;35.13;44.22;100447.53;5081920;27;69453;-32
2021/03/28 08:44:50;;;;;;;13.43;5.90;;;;;;;35.24;44.36;100444.84;5060088;27;65882;-31
2021/03/28 08:48:10;;;;;;;12.00;6.15;;;;;;;35.25;44.83;100452.78;5049354;27;70031;-31
2021/03/28 08:50:49;;;;;;;21.98;5.13;;;;;;;35.34;44.71;100444.94;5010922;28;67017;-34
2021/03/28 08:53:45;;;;;;;17.65;5.90;;;;;;;35.35;44.67;100457.50;5072319;27;69026;-30
2021/03/28 08:56:19;;;;;;;20.15;5.60;;;;;;;35.45;45.10;100452.13;5061099;27;65035;-31
2021/03/28 08:59:11;;;;;;;17.88;5.57;;;;;;;35.50;45.46;100454.88;5070292;27;69099;-32
2021/03/28 09:01:50;;;;;;;26.48;7.25;;;;;;;35.51;45.67;100445.59;5054041;28;66046;-31
2021/03/28 09:04:29;;;;;;;19.80;6.28;;;;;;;35.61;45.36;100446.78;5069800;27;70608;-34
2021/03/28 09:07:19;;;;;;;19.73;5.50;;;;;;;35.55;44.84;100433.09;5072286;27;66166;-30
2021/03/28 09:10:13;;;;;;;23.30;6.20;;;;;;;35.71;44.75;100449.59;5070027;27;70646;-31
2021/03/28 09:12:55;;;;;;;21.15;5.65;;;;;;;35.72;44.64;100437.59;5063967;28;65270;-31
2021/03/28 09:15:46;;;;;;;18.02;5.53;;;;;;;35.84;44.43;100449.13;5083165;27;69754;-31
2021/03/28 09:18:39;;;;;;;17.02;5.10;;;;;;;35.87;44.74;100443.13;5052939;28;65441;-32
2021/03/28 09:21:34;;;;;;;13.82;4.88;;;;;;;35.85;44.67;100434.38;5058243;27;70025;-31
2021/03/28 09:24:37;;;;;;;17.05;5.05;;;;;;;35.95;44.43;100431.72;5056770;27;65573;-31
2021/03/28 09:27:44;;;;;;;29.52;5.10;;;;;;;35.95;44.29;100428.97;5054389;27;69982;-32
2021/03/28 09:31:00;;;;;;;10.20;4.75;;;;;;;35.96;44.48;100425.16;5061673;28;66966;-29
2021/03/28 09:34:00;;;;;;;17.58;4.65;;;;;;;35.98;43.88;100422.97;5066160;27;69126;-31
2021/03/28 09:36:40;;;;;;;14.90;4.55;;;;;;;35.98;44.18;100422.97;5068620;28;65932;-30
2021/03/28 09:39:22;;;;;;;12.10;5.18;;;;;;;35.99;44.33;100416.44;5061918;28;70119;-30
2021/03/28 09:42:18;;;;;;;7.90;4.45;;;;;;;35.98;43.86;100428.44;5067908;28;65255;-30
2021/03/28 09:45:24;;;;;;;11.02;4.80;;;;;;;35.96;44.25;100427.88;5061974;28;70479;-31
2021/03/28 09:48:13;;;;;;;12.20;4.25;;;;;;;36.01;43.48;100427.91;5059574;28;66890;-32
2021/03/28 09:50:51;;;;;;;10.23;4.13;;;;;;;35.95;43.81;100423.53;5058175;27;70045;-31
2021/03/28 09:53:20;;;;;;;14.00;3.95;;;;;;;35.97;43.38;100421.34;5055554;27;65487;-30
2021/03/28 09:56:13;;;;;;;12.07;4.57;;;;;;;35.98;43.83;100420.25;5053578;28;68953;-33
2021/03/28 09:59:13;;;;;;;12.82;4.45;;;;;;;35.97;44.12;100410.44;5053941;28;65696;-30
2021/03/28 10:01:54;;;;;;;6.15;4.15;;;;;;;35.92;43.93;100413.13;5055829;27;70396;-32
2021/03/28 10:04:43;;;;;;;9.43;4.00;;;;;;;35.90;43.48;100404.38;5053187;27;66911;-31
2021/03/28 10:07:14;;;;;;;15.40;4.75;;;;;;;35.87;44.18;100410.38;5060455;28;69269;-31
2021/03/28 10:10:15;;;;;;;10.68;4.35;;;;;;;35.83;44.01;100408.44;5057955;28;66942;-31
2021/03/28 10:13:13;;;;;;;11.13;4.72;;;;;;;35.82;43.57;100418.53;5060777;28;69741;-35
2021/03/28 10:16:07;;;;;;;12.80;4.65;;;;;;;35.81;43.78;100408.72;5063139;27;65778;-31
2021/03/28 10:18:40;;;;;;;40.35;5.50;;;;;;;35.86;43.18;100403.28;5068952;27;69305;-31
2021/03/28 10:21:31;;;;;;;55.95;6.25;;;;;;;35.66;43.20;100392.25;5068301;28;66203;-31
2021/03/28 10:24:08;;;;;;;28.67;5.40;;;;;;;35.76;43.39;100395.03;5054979;27;69493;-35
2021/03/28 10:26:53;;;;;;;16.15;5.25;;;;;;;35.73;43.31;100390.13;5060049;28;65359;-31
2021/03/28 10:29:51;;;;;;;19.95;4.95;;;;;;;35.87;43.65;100395.91;5065975;27;70387;-31
2021/03/28 10:32:36;;;;;;;15.77;4.38;;;;;;;35.88;43.72;100400.28;5070948;27;66764;-33
2021/03/28 10:35:35;;;;;;;8.70;4.63;;;;;;;35.89;43.26;100408.22;5059382;28;69607;-31
2021/03/28 10:38:16;;;;;;;19.13;4.93;;;;;;;35.91;43.32;100413.38;5051217;28;66604;-34
2021/03/28 10:40:52;;;;;;;;;;;;;;;35.85;43.27;100417.19;5069848;27;69847;-32
2021/03/28 10:43:42;;;;;;;7.38;4.07;;;;;;;35.92;43.02;100415.06;5074397;28;66838;-32
2021/03/28 10:46:50;;;;;;;9.40;4.43;;;;;;;35.86;43.35;100416.09;5085181;27;71205;-32
2021/03/28 10:49:35;;;;;;;10.18;4.30;;;;;;;35.87;43.20;100423.22;5039337;28;66583;-31
2021/03/28 10:52:16;;;;;;;12.48;4.03;;;;;;;35.89;43.19;100426.50;5065461;27;69294;-31
2021/03/28 10:55:12;;;;;;;8.75;4.18;;;;;;;35.81;43.68;100433.28;5078889;27;66010;-31
2021/03/28 10:58:03;;;;;;;13.07;4.38;;;;;;;35.82;43.89;100437.63;5072263;27;70991;-33
2021/03/28 11:01:10;;;;;;;7.22;4.78;;;;;;;35.81;44.03;100444.19;5077197;27;65413;-32
2021/03/28 11:03:48;;;;;;;12.32;4.53;;;;;;;35.72;44.52;100440.34;5065543;27;69872;-37
2021/03/28 11:06:53;;;;;;;8.10;4.43;;;;;;;35.57;44.58;100450.03;5053446;28;65117;-35
2021/03/28 11:10:00;;;;;;;10.02;4.95;;;;;;;35.38;45.11;100456.97;5049998;27;70611;-31
2021/03/28 11:13:02;;;;;;;12.90;8.85;;;;;;;35.38;44.79;100473.31;5052752;27;66453;-31
2021/03/28 11:15:43;;;;;;;8.65;7.82;;;;;;;35.31;44.89;100472.75;5060439;28;69308;-31
2021/03/28 11:19:09;;;;;;;13.97;6.10;;;;;;;35.23;45.20;100478.66;5060475;27;66448;-31
2021/03/28 11:22:16;;;;;;;11.05;5.35;;;;;;;35.12;45.66;100481.31;5060497;28;70021;-33
2021/03/28 11:25:02;;;;;;;10.93;5.80;;;;;;;35.13;45.28;100488.41;5068848;27;66381;-31
2021/03/28 11:28:02;;;;;;;13.80;5.88;;;;;;;35.06;46.20;100486.97;5056245;28;70076;-32
2021/03/28 11:30:34;;;;;;;9.35;5.75;;;;;;;35.06;47.11;100495.97;5064530;28;65886;-35
2021/03/28 11:33:20;;;;;;;7.57;6.13;;;;;;;34.98;46.91;100501.84;5061389;27;68260;-32
2021/03/28 11:35:56;;;;;;;6.90;5.35;;;;;;;34.93;45.24;100504.53;5065997;28;66254;-32
2021/03/28 11:39:01;;;;;;;5.80;5.15;;;;;;;34.69;43.94;100509.47;5050772;27;70036;-34
2021/03/28 11:41:45;;;;;;;7.50;5.15;;;;;;;34.58;43.51;100519.41;5052503;27;66753;-32
2021/03/28 11:44:25;;;;;;;8.40;4.60;;;;;;;34.47;42.81;100523.06;5051074;28;70972;-32
2021/03/28 11:47:01;;;;;;;5.97;5.20;;;;;;;34.32;43.10;100514.69;5054232;27;66712;-31
2021/03/28 11:50:01;;;;;;;18.27;5.97;;;;;;;34.12;42.69;100531.56;5050954;27;68177;-29
2021/03/28 11:52:51;;;;;;;14.10;4.72;;;;;;;34.00;41.74;100534.38;5053664;27;67122;-34
2021/03/28 11:55:49;;;;;;;57.53;6.47;;;;;;;33.94;42.38;100529.94;5056305;28;70388;-30
2021/03/28 11:58:28;;;;;;;23.70;5.45;;;;;;;33.76;41.34;100522.84;5062689;27;66434;-30
2021/03/28 12:00:59;;;;;;;28.33;5.53;;;;;;;33.84;41.64;100546.09;5050380;27;71001;-32
2021/03/28 12:03:40;;;;;;;15.13;5.13;;;;;;;33.79;41.09;100533.22;5056075;27;65795;-33
2021/03/28 12:06:18;;;;;;;12.38;4.45;;;;;;;33.67;39.75;100552.38;5061475;27;69632;-34
2021/03/28 12:08:48;;;;;;;15.23;5.13;;;;;;;33.63;40.32;100555.81;5060513;27;66408;-38
2021/03/28 12:11:37;;;;;;;19.63;4.53;;;;;;;33.54;39.32;100572.56;5058311;27;69298;-30
2021/03/28 12:14:12;;;;;;;10.05;4.55;;;;;;;33.51;39.42;100575.72;5057181;27;66384;-31
2021/03/28 12:17:10;;;;;;;11.43;4.68;;;;;;;33.42;38.68;100581.81;5059830;27;69221;-30
2021/03/28 12:20:01;;;;;;;8.63;4.15;;;;;;;33.31;38.82;100573.47;5065305;27;66543;-31
2021/03/28 12:22:48;;;;;;;10.02;4.00;;;;;;;33.25;38.14;100579.91;5068064;27;69336;-33
2021/03/28 12:25:24;;;;;;;15.80;4.20;;;;;;;33.21;38.34;100584.19;5063932;27;66726;-32
2021/03/28 12:27:55;;;;;;;6.15;4.03;;;;;;;33.14;38.64;100586.22;5061496;28;69186;-34
2021/03/28 12:30:30;;;;;;;6.50;4.80;;;;;;;33.12;41.90;100604.63;5069112;28;65854;-32
2021/03/28 12:33:33;;;;;;;15.25;5.60;;;;;;;33.04;44.20;100610.47;5064101;28;70778;-30
2021/03/28 12:36:06;;;;;;;14.05;5.90;;;;;;;32.97;45.05;100602.44;5059491;28;66489;-29
2021/03/28 12:38:57;;;;;;;12.32;5.50;;;;;;;32.96;45.17;100610.81;5076239;27;70516;-30
2021/03/28 12:41:32;;;;;;;13.90;5.10;;;;;;;32.96;44.36;100614.38;5071293;27;65744;-32
2021/03/28 12:44:07;;;;;;;14.93;5.40;;;;;;;32.90;43.28;100613.44;5057600;27;69195;-32
2021/03/28 12:46:47;;;;;;;6.07;4.78;;;;;;;32.90;42.61;100624.31;5062180;27;66084;-36
2021/03/28 12:49:29;;;;;;;20.73;5.05;;;;;;;32.80;42.16;100621.38;5081567;27;70152;-32
2021/03/28 12:52:01;;;;;;;;;;;;;;;32.71;42.38;100630.97;5063464;27;66364;-34
2021/03/28 12:54:56;;;;;;;40.55;5.45;;;;;;;32.74;41.82;100646.78;5069564;27;70215;-30
2021/03/28 12:57:28;;;;;;;27.88;4.93;;;;;;;32.74;41.80;100645.97;5048297;27;65653;-32
2021/03/28 13:00:19;;;;;;;15.70;4.35;;;;;;;32.58;42.06;100625.78;5055119;27;69358;-34
2021/03/28 13:02:50;;;;;;;17.02;4.63;;;;;;;32.64;43.37;100647.38;5055492;27;66572;-30
2021/03/28 13:05:22;;;;;;;16.48;4.13;;;;;;;32.61;43.82;100642.41;5057531;27;70312;-33